Time;durP1;ratioP1;P1;durP2;ratioP2;P2;SDS_P1;SDS_P2;PMS_P1;PMS_P2;Temp;Humidity;BMP_temperature;BMP_pressure;BME280_temperature;BME280_humidity;BME280_pressure;Samples;Min_cycle;Max_cycle;Signal;HPM_P1;HPM_P2
2022/05/27 00:04:33;;;;;;;;;;;;;;;14.87;69.33691;101975.3;;;;-82
2022/05/27 00:09:33;;;;;;;;;;;;;;;14.83;69.70117;101967.9;;;;-79
2022/05/27 00:14:33;;;;;;;;;;;;;;;14.81;69.58594;101969.1;;;;-82
2022/05/27 00:19:33;;;;;;;;;;;;;;;14.79;69.39063;101967.9;;;;-81
2022/05/27 00:21:01;;;;;;;5.8;1.7;;;;;;;;;;;;;-81
2022/05/27 00:24:36;;;;;;;;;;;;;;;14.75;69.30664;101968.2;;;;-83
2022/05/27 00:29:33;;;;;;;;;;;;;;;14.73;69.125;101969.2;;;;-82
2022/05/27 00:34:33;;;;;;;;;;;;;;;14.7;69.18652;101969.1;;;;-81
2022/05/27 00:39:33;;;;;;;;;;;;;;;14.64;69.24512;101966.7;;;;-84
2022/05/27 00:44:34;;;;;;;;;;;;;;;14.6;69.39453;101968.1;;;;-83
2022/05/27 00:49:33;;;;;;;;;;;;;;;14.53;68.9043;101968.5;;;;-81
2022/05/27 00:51:01;;;;;;;6.7;1.7;;;;;;;;;;;;;-82
2022/05/27 00:54:33;;;;;;;;;;;;;;;14.44;69.00098;101958.2;;;;-82
2022/05/27 00:59:36;;;;;;;;;;;;;;;14.39;68.99219;101967.9;;;;-83
2022/05/27 01:04:36;;;;;;;;;;;;;;;14.3;68.75391;101972.4;;;;-82
2022/05/27 01:09:34;;;;;;;;;;;;;;;14.22;68.76465;101973.6;;;;-80
2022/05/27 01:14:41;;;;;;;;;;;;;;;14.15;69.12305;101971.3;;;;-83
2022/05/27 01:21:05;;;;;;;5.5;1.5;;;;;;;;;;;;;-83
2022/05/27 01:24:49;;;;;;;;;;;;;;;14.11;68.99414;101965;;;;-82
2022/05/27 01:29:44;;;;;;;;;;;;;;;14.09;68.95801;101963.4;;;;-84
2022/05/27 01:34:47;;;;;;;;;;;;;;;14.07;68.87695;101965.5;;;;-83
2022/05/27 01:39:37;;;;;;;;;;;;;;;14.04;68.91699;101965.1;;;;-81
2022/05/27 01:44:38;;;;;;;;;;;;;;;14.01;68.97949;101976.9;;;;-80
2022/05/27 01:49:42;;;;;;;;;;;;;;;13.99;68.88574;101973.7;;;;-80
2022/05/27 01:51:07;;;;;;;4.8;1.1;;;;;;;;;;;;;-80
2022/05/27 01:54:38;;;;;;;;;;;;;;;13.97;68.98242;101977.9;;;;-80
2022/05/27 01:59:36;;;;;;;;;;;;;;;13.94;68.82324;101977.7;;;;-80
2022/05/27 02:04:36;;;;;;;;;;;;;;;13.92;68.83008;101968.2;;;;-81
2022/05/27 02:09:35;;;;;;;;;;;;;;;13.88;68.63379;101958.2;;;;-80
2022/05/27 02:14:38;;;;;;;;;;;;;;;13.86;68.75391;101973.7;;;;-83
2022/05/27 02:19:36;;;;;;;;;;;;;;;13.84;68.7168;101966;;;;-80
2022/05/27 02:21:08;;;;;;;5.5;1.3;;;;;;;;;;;;;-79
2022/05/27 02:24:37;;;;;;;;;;;;;;;13.81;68.75586;101968;;;;-81
2022/05/27 02:29:34;;;;;;;;;;;;;;;13.78;68.78516;101970.1;;;;-81
2022/05/27 02:39:33;;;;;;;;;;;;;;;13.72;68.58594;101974.6;;;;-82
2022/05/27 02:44:39;;;;;;;;;;;;;;;13.7;68.52539;101971.7;;;;-81
2022/05/27 02:49:37;;;;;;;;;;;;;;;13.68;68.48926;101974.3;;;;-81
2022/05/27 02:51:09;;;;;;;4.5;1.1;;;;;;;;;;;;;-81
2022/05/27 02:54:36;;;;;;;;;;;;;;;13.67;68.24316;101972.9;;;;-81
2022/05/27 02:59:34;;;;;;;;;;;;;;;13.66;68.23047;101972.5;;;;-80
2022/05/27 03:04:33;;;;;;;;;;;;;;;13.67;67.88574;101974.5;;;;-82
2022/05/27 03:09:39;;;;;;;;;;;;;;;13.67;67.9082;101970.8;;;;-81
2022/05/27 03:14:50;;;;;;;;;;;;;;;13.65;67.92578;101962.1;;;;-80
2022/05/27 03:19:50;;;;;;;;;;;;;;;13.64;67.89258;101963.5;;;;-82
2022/05/27 03:21:12;;;;;;;4.6;1.5;;;;;;;;;;;;;-81
2022/05/27 03:24:40;;;;;;;;;;;;;;;13.63;67.88965;101967.5;;;;-83
2022/05/27 03:29:38;;;;;;;;;;;;;;;13.6;67.96289;101976.9;;;;-82
2022/05/27 03:34:35;;;;;;;;;;;;;;;13.58;68.09375;101979.6;;;;-81
2022/05/27 03:39:37;;;;;;;;;;;;;;;13.58;67.9834;101983.8;;;;-81
2022/05/27 03:44:33;;;;;;;;;;;;;;;13.54;67.8418;101974.6;;;;-81
2022/05/27 03:49:35;;;;;;;;;;;;;;;13.5;67.79004;101967.7;;;;-81
2022/05/27 03:51:13;;;;;;;4.7;1.2;;;;;;;;;;;;;-81
2022/05/27 03:54:33;;;;;;;;;;;;;;;13.49;67.80176;101974;;;;-80
2022/05/27 03:59:33;;;;;;;;;;;;;;;13.48;67.81152;101972.7;;;;-81
2022/05/27 04:04:33;;;;;;;;;;;;;;;13.46;67.95215;101968.9;;;;-82
2022/05/27 04:09:33;;;;;;;;;;;;;;;13.44;67.83789;101973;;;;-80
2022/05/27 04:14:33;;;;;;;;;;;;;;;13.44;67.69238;101976.3;;;;-82
2022/05/27 04:19:33;;;;;;;;;;;;;;;13.41;67.74414;101980.3;;;;-83
2022/05/27 04:21:10;;;;;;;3.9;1.3;;;;;;;;;;;;;-81
2022/05/27 04:24:33;;;;;;;;;;;;;;;13.4;67.55273;101984.6;;;;-80
2022/05/27 04:29:33;;;;;;;;;;;;;;;13.39;67.45117;101991.3;;;;-82
2022/05/27 04:34:33;;;;;;;;;;;;;;;13.39;67.39453;101995.1;;;;-81
2022/05/27 04:39:34;;;;;;;;;;;;;;;13.4;67.39453;101999.3;;;;-83
2022/05/27 04:44:33;;;;;;;;;;;;;;;13.4;67.3291;101999.3;;;;-80
2022/05/27 04:51:11;;;;;;;4.2;1.2;;;;;;;;;;;;;-80
2022/05/27 04:54:33;;;;;;;;;;;;;;;13.4;67.15039;102016;;;;-82
2022/05/27 04:59:36;;;;;;;;;;;;;;;13.4;67.02734;102021.4;;;;-82
2022/05/27 05:04:33;;;;;;;;;;;;;;;13.41;66.77148;102021.7;;;;-81
2022/05/27 05:09:33;;;;;;;;;;;;;;;13.45;66.55371;102018.1;;;;-81
2022/05/27 05:14:34;;;;;;;;;;;;;;;13.49;66.33691;102020.1;;;;-83
2022/05/27 05:19:33;;;;;;;;;;;;;;;13.56;66.06641;102020;;;;-81
2022/05/27 05:21:13;;;;;;;8.1;1.4;;;;;;;;;;;;;-82
2022/05/27 05:24:33;;;;;;;;;;;;;;;13.61;65.78516;102027.2;;;;-82
2022/05/27 05:29:33;;;;;;;;;;;;;;;13.68;65.60449;102030.5;;;;-81
2022/05/27 05:34:33;;;;;;;;;;;;;;;13.75;65.2666;102037.5;;;;-81
2022/05/27 05:39:33;;;;;;;;;;;;;;;13.96;64.95215;102046;;;;-81
2022/05/27 05:44:35;;;;;;;;;;;;;;;14.14;64.41797;102046.9;;;;-83
2022/05/27 05:49:33;;;;;;;;;;;;;;;14.26;63.87402;102047.8;;;;-83
2022/05/27 05:51:14;;;;;;;10.1;1.7;;;;;;;;;;;;;-80
2022/05/27 05:54:33;;;;;;;;;;;;;;;14.33;63.55762;102054.3;;;;-77
2022/05/27 05:59:34;;;;;;;;;;;;;;;14.38;63.33105;102048.7;;;;-75
2022/05/27 06:04:33;;;;;;;;;;;;;;;14.43;63.33691;102059.6;;;;-75
2022/05/27 06:09:33;;;;;;;;;;;;;;;14.43;62.88867;102063.6;;;;-75
2022/05/27 06:14:33;;;;;;;;;;;;;;;14.46;62.64746;102070.3;;;;-73
2022/05/27 06:19:33;;;;;;;;;;;;;;;14.55;62.19824;102074.6;;;;-75
2022/05/27 06:21:15;;;;;;;7.7;1.8;;;;;;;;;;;;;-75
2022/05/27 06:24:34;;;;;;;;;;;;;;;14.68;61.58789;102073.9;;;;-75
2022/05/27 06:34:33;;;;;;;;;;;;;;;15;60.55273;102092;;;;-76
2022/05/27 06:39:35;;;;;;;;;;;;;;;15.07;60.30566;102098.7;;;;-77
2022/05/27 06:44:33;;;;;;;;;;;;;;;15.13;59.93066;102102.8;;;;-75
2022/05/27 06:49:33;;;;;;;;;;;;;;;15.21;59.71582;102105.1;;;;-76
2022/05/27 06:51:18;;;;;;;10.1;2.2;;;;;;;;;;;;;-76
2022/05/27 06:54:34;;;;;;;;;;;;;;;15.59;59.30664;102096;;;;-76
2022/05/27 06:59:33;;;;;;;;;;;;;;;16.17;57.64648;102107;;;;-76
2022/05/27 07:04:33;;;;;;;;;;;;;;;16.63;56.25;102107.6;;;;-75
2022/05/27 07:09:35;;;;;;;;;;;;;;;16.79;55.51172;102102.5;;;;-75
2022/05/27 07:14:33;;;;;;;;;;;;;;;16.95;55.14746;102103.8;;;;-76
2022/05/27 07:19:34;;;;;;;;;;;;;;;17.13;54.36719;102108.7;;;;-74
2022/05/27 07:21:18;;;;;;;13.2;2.1;;;;;;;;;;;;;-76
2022/05/27 07:24:33;;;;;;;;;;;;;;;17.24;54.20898;102116.8;;;;-76
2022/05/27 07:29:33;;;;;;;;;;;;;;;17.32;53.78906;102117.2;;;;-77
2022/05/27 07:34:33;;;;;;;;;;;;;;;17.51;53.29102;102120.4;;;;-75
2022/05/27 07:39:33;;;;;;;;;;;;;;;17.57;53.01563;102120.7;;;;-77
2022/05/27 07:44:33;;;;;;;;;;;;;;;17.64;52.90918;102116.8;;;;-77
2022/05/27 07:49:33;;;;;;;;;;;;;;;17.77;52.35938;102127.9;;;;-75
2022/05/27 07:51:20;;;;;;;8.1;2.1;;;;;;;;;;;;;-76
2022/05/27 07:54:33;;;;;;;;;;;;;;;17.9;52.50977;102125.7;;;;-77
2022/05/27 07:59:33;;;;;;;;;;;;;;;18.27;51.58789;102120.3;;;;-77
2022/05/27 08:04:36;;;;;;;;;;;;;;;18.52;50.51465;102119.6;;;;-75
2022/05/27 08:09:33;;;;;;;;;;;;;;;18.6;50.05762;102122.8;;;;-77
2022/05/27 08:14:34;;;;;;;;;;;;;;;18.63;49.85645;102138.5;;;;-76
2022/05/27 08:19:33;;;;;;;;;;;;;;;18.66;49.47266;102131.1;;;;-76
2022/05/27 08:21:21;;;;;;;7.7;1.9;;;;;;;;;;;;;-75
2022/05/27 08:24:33;;;;;;;;;;;;;;;18.59;49.47754;102137.7;;;;-77
2022/05/27 08:29:33;;;;;;;;;;;;;;;18.68;49.16895;102140.6;;;;-75
2022/05/27 08:39:33;;;;;;;;;;;;;;;19.38;48.09473;102146.5;;;;-75
2022/05/27 08:44:38;;;;;;;;;;;;;;;19.63;47.34766;102157.2;;;;-75
2022/05/27 08:49:35;;;;;;;;;;;;;;;19.81;47.01074;102158.2;;;;-76
2022/05/27 08:51:25;;;;;;;9.6;2.1;;;;;;;;;;;;;-77
2022/05/27 08:54:36;;;;;;;;;;;;;;;19.96;46.85742;102151.6;;;;-74
2022/05/27 08:59:37;;;;;;;;;;;;;;;20.21;46.52832;102153;;;;-76
2022/05/27 09:04:37;;;;;;;;;;;;;;;20.51;46.24023;102157.6;;;;-76
2022/05/27 09:09:34;;;;;;;;;;;;;;;20.61;45.47266;102157.4;;;;-75
2022/05/27 09:14:34;;;;;;;;;;;;;;;20.5;45.74707;102169.1;;;;-75
2022/05/27 09:19:39;;;;;;;;;;;;;;;20.39;46.11328;102176.4;;;;-77
2022/05/27 09:21:30;;;;;;;11.5;2.5;;;;;;;;;;;;;-76
2022/05/27 09:24:42;;;;;;;;;;;;;;;20.28;46.31934;102182.8;;;;-77
2022/05/27 09:29:39;;;;;;;;;;;;;;;20.13;46.55469;102183;;;;-76
2022/05/27 09:34:34;;;;;;;;;;;;;;;19.93;46.89844;102185.9;;;;-77
2022/05/27 09:39:33;;;;;;;;;;;;;;;19.78;47.3623;102188.3;;;;-78
2022/05/27 09:44:35;;;;;;;;;;;;;;;19.71;47.48047;102185.2;;;;-75
2022/05/27 09:49:34;;;;;;;;;;;;;;;19.95;47.01465;102189.1;;;;-76
2022/05/27 09:51:29;;;;;;;10;2;;;;;;;;;;;;;-76
2022/05/27 09:54:38;;;;;;;;;;;;;;;20.18;46.45605;102195.5;;;;-76
2022/05/27 09:59:38;;;;;;;;;;;;;;;20.47;45.7334;102184.3;;;;-76
2022/05/27 10:04:36;;;;;;;;;;;;;;;20.73;45.19824;102189.4;;;;-78
2022/05/27 10:09:34;;;;;;;;;;;;;;;21.01;44.44922;102193.6;;;;-78
2022/05/27 10:14:34;;;;;;;;;;;;;;;21.35;44.21875;102192.4;;;;-76
2022/05/27 10:19:33;;;;;;;;;;;;;;;21.7;43.8291;102201;;;;-78
2022/05/27 10:21:31;;;;;;;9.6;1.9;;;;;;;;;;;;;-76
2022/05/27 10:24:34;;;;;;;;;;;;;;;22.04;43.18457;102200.8;;;;-75
2022/05/27 10:29:33;;;;;;;;;;;;;;;22.28;42.84082;102206;;;;-77
2022/05/27 10:34:47;;;;;;;;;;;;;;;22.4;41.87402;102212.8;;;;-76
2022/05/27 10:39:37;;;;;;;;;;;;;;;22.48;41.35352;102219.9;;;;-77
2022/05/27 10:44:40;;;;;;;;;;;;;;;22.58;41.31641;102219.9;;;;-77
2022/05/27 10:49:46;;;;;;;;;;;;;;;22.85;40.77734;102227.3;;;;-77
2022/05/27 10:51:42;;;;;;;8;1.7;;;;;;;;;;;;;-78
2022/05/27 10:54:46;;;;;;;;;;;;;;;23;40.42188;102221;;;;-77
2022/05/27 11:04:39;;;;;;;;;;;;;;;22.89;40.16992;102225.7;;;;-77
2022/05/27 11:09:37;;;;;;;;;;;;;;;22.78;40.1377;102227.1;;;;-75
2022/05/27 11:19:41;;;;;;;;;;;;;;;22.96;40.91504;102235.6;;;;-78
2022/05/27 11:21:43;;;;;;;8.7;1.8;;;;;;;;;;;;;-77
2022/05/27 11:24:47;;;;;;;;;;;;;;;23.27;40.21582;102244.4;;;;-77
2022/05/27 11:29:58;;;;;;;;;;;;;;;23.3;39.36621;102244.8;;;;-76
2022/05/27 11:34:35;;;;;;;;;;;;;;;23.18;39.53906;102251.9;;;;-76
2022/05/27 11:39:47;;;;;;;;;;;;;;;23.04;39.93066;102258.3;;;;-75
2022/05/27 11:44:41;;;;;;;;;;;;;;;22.92;40.17383;102258.5;;;;-76
2022/05/27 11:49:43;;;;;;;;;;;;;;;22.87;40.29492;102262.2;;;;-76
2022/05/27 11:51:43;;;;;;;8.7;1.7;;;;;;;;;;;;;-76
2022/05/27 11:54:41;;;;;;;;;;;;;;;22.91;40.3457;102265.5;;;;-75
2022/05/27 11:59:35;;;;;;;;;;;;;;;22.87;40.2832;102273.2;;;;-78
2022/05/27 12:04:39;;;;;;;;;;;;;;;22.78;39.78027;102271.8;;;;-78
2022/05/27 12:09:34;;;;;;;;;;;;;;;22.6;40.17969;102273.1;;;;-79
2022/05/27 12:14:37;;;;;;;;;;;;;;;22.38;40.14844;102273.8;;;;-75
2022/05/27 12:19:36;;;;;;;;;;;;;;;22.11;40.42285;102278.6;;;;-76
2022/05/27 12:21:44;;;;;;;9.2;1.7;;;;;;;;;;;;;-77
2022/05/27 12:24:36;;;;;;;;;;;;;;;21.9;40.89746;102282;;;;-76
2022/05/27 12:29:33;;;;;;;;;;;;;;;21.86;41.18066;102286.4;;;;-75
2022/05/27 12:34:43;;;;;;;;;;;;;;;21.79;41.08301;102292;;;;-76
2022/05/27 12:39:34;;;;;;;;;;;;;;;21.82;41.24609;102288.3;;;;-77
2022/05/27 12:44:33;;;;;;;;;;;;;;;21.97;41.43164;102291.8;;;;-77
2022/05/27 12:49:39;;;;;;;;;;;;;;;22.11;40.90527;102297.2;;;;-76
2022/05/27 12:51:48;;;;;;;8.3;1.7;;;;;;;;;;;;;-77
2022/05/27 12:54:45;;;;;;;;;;;;;;;22.14;40.59766;102304.2;;;;-77
2022/05/27 13:04:52;;;;;;;;;;;;;;;21.9;40.59863;102298.6;;;;-76
2022/05/27 13:09:48;;;;;;;;;;;;;;;21.84;41.13281;102297.8;;;;-77
2022/05/27 13:14:44;;;;;;;;;;;;;;;21.89;41.06934;102312.1;;;;-76
2022/05/27 13:19:36;;;;;;;;;;;;;;;21.92;40.73828;102310.9;;;;-77
2022/05/27 13:21:50;;;;;;;10.4;1.7;;;;;;;;;;;;;-76
2022/05/27 13:24:36;;;;;;;;;;;;;;;21.91;40.79492;102308.7;;;;-77
2022/05/27 13:29:39;;;;;;;;;;;;;;;21.81;40.53223;102311.4;;;;-77
2022/05/27 13:34:39;;;;;;;;;;;;;;;21.68;40.99121;102314.9;;;;-75
2022/05/27 13:39:35;;;;;;;;;;;;;;;21.5;40.91797;102308.4;;;;-77
2022/05/27 13:44:40;;;;;;;;;;;;;;;21.36;41.3418;102320.6;;;;-77
2022/05/27 13:49:36;;;;;;;;;;;;;;;21.16;41.07031;102309.3;;;;-77
2022/05/27 13:51:51;;;;;;;12.5;4.7;;;;;;;;;;;;;-76
2022/05/27 13:54:40;;;;;;;;;;;;;;;21.01;41.44629;102311.9;;;;-78
2022/05/27 13:59:36;;;;;;;;;;;;;;;20.91;41.62109;102312.9;;;;-77
2022/05/27 14:04:36;;;;;;;;;;;;;;;20.87;41.88086;102312.3;;;;-76
2022/05/27 14:09:34;;;;;;;;;;;;;;;20.82;41.93262;102315.9;;;;-75
2022/05/27 14:14:35;;;;;;;;;;;;;;;20.8;41.97656;102310.5;;;;-77
2022/05/27 14:19:33;;;;;;;;;;;;;;;20.91;41.59766;102315.1;;;;-76
2022/05/27 14:24:36;;;;;;;;;;;;;;;20.93;41.29102;102316;;;;-75
2022/05/27 14:29:33;;;;;;;;;;;;;;;20.98;41.23633;102318.4;;;;-80
2022/05/27 14:34:34;;;;;;;;;;;;;;;20.92;40.89941;102321;;;;-76
2022/05/27 14:39:33;;;;;;;;;;;;;;;20.83;41.29102;102325.7;;;;-76
2022/05/27 14:44:42;;;;;;;;;;;;;;;20.85;41.43164;102316.2;;;;-77
2022/05/27 14:49:34;;;;;;;;;;;;;;;20.99;41.35254;102322.6;;;;-75
2022/05/27 14:51:57;;;;;;;9.3;1.4;;;;;;;;;;;;;-76
2022/05/27 14:54:34;;;;;;;;;;;;;;;21.15;41.11523;102332.3;;;;-75
2022/05/27 14:59:35;;;;;;;;;;;;;;;21.19;41.2334;102332.9;;;;-75
2022/05/27 15:04:35;;;;;;;;;;;;;;;21.4;41.19629;102329.5;;;;-77
2022/05/27 15:09:38;;;;;;;;;;;;;;;21.54;40.40625;102325;;;;-75
2022/05/27 15:14:43;;;;;;;;;;;;;;;21.5;40.59668;102329.2;;;;-75
2022/05/27 15:19:41;;;;;;;;;;;;;;;21.45;40.33984;102321.5;;;;-76
2022/05/27 15:22:04;;;;;;;5.8;1.5;;;;;;;;;;;;;-76
2022/05/27 15:24:39;;;;;;;;;;;;;;;21.39;40.58691;102320.6;;;;-76
2022/05/27 15:34:36;;;;;;;;;;;;;;;21.36;40.57227;102324.4;;;;-76
2022/05/27 15:39:33;;;;;;;;;;;;;;;21.46;40.48926;102324;;;;-78
2022/05/27 15:44:33;;;;;;;;;;;;;;;21.48;40.10156;102324.3;;;;-76
2022/05/27 15:49:35;;;;;;;;;;;;;;;21.4;40.27832;102317.4;;;;-76
2022/05/27 15:52:02;;;;;;;7.4;1.8;;;;;;;;;;;;;-76
2022/05/27 15:54:33;;;;;;;;;;;;;;;21.3;40.37109;102317;;;;-77
2022/05/27 15:59:33;;;;;;;;;;;;;;;21.2;40.44336;102309.2;;;;-77
2022/05/27 16:04:34;;;;;;;;;;;;;;;21.11;40.75586;102316;;;;-76
2022/05/27 16:09:33;;;;;;;;;;;;;;;20.99;40.88184;102312.6;;;;-75
2022/05/27 16:14:34;;;;;;;;;;;;;;;20.91;40.92188;102306.9;;;;-83
2022/05/27 16:19:42;;;;;;;;;;;;;;;20.94;41.00488;102298.5;;;;-82
2022/05/27 16:22:07;;;;;;;8;1.8;;;;;;;;;;;;;-83
2022/05/27 16:24:35;;;;;;;;;;;;;;;20.92;40.97949;102292.9;;;;-82
2022/05/27 16:29:38;;;;;;;;;;;;;;;20.83;41.24707;102293.6;;;;-83
2022/05/27 16:34:42;;;;;;;;;;;;;;;20.73;41.51074;102309.3;;;;-83
2022/05/27 16:39:45;;;;;;;;;;;;;;;20.66;41.57422;102310.9;;;;-81
2022/05/27 16:44:59;;;;;;;;;;;;;;;20.55;41.64453;102313.9;;;;-81
2022/05/27 16:52:09;;;;;;;7.3;1.5;;;;;;;;;;;;;-82
2022/05/27 16:54:35;;;;;;;;;;;;;;;20.42;42.21582;102311.2;;;;-80
2022/05/27 16:59:33;;;;;;;;;;;;;;;20.36;42.3252;102310.3;;;;-81
2022/05/27 17:04:35;;;;;;;;;;;;;;;20.26;42.46289;102309.5;;;;-82
2022/05/27 17:09:33;;;;;;;;;;;;;;;20.16;42.51172;102313.3;;;;-81
2022/05/27 17:14:33;;;;;;;;;;;;;;;20.09;42.79102;102315.7;;;;-82
2022/05/27 17:19:33;;;;;;;;;;;;;;;19.93;42.85449;102314.1;;;;-80
2022/05/27 17:22:11;;;;;;;6.9;1.5;;;;;;;;;;;;;-83
2022/05/27 17:24:34;;;;;;;;;;;;;;;19.77;43.19434;102308.8;;;;-82
2022/05/27 17:29:33;;;;;;;;;;;;;;;19.59;43.25684;102309.6;;;;-82
2022/05/27 17:34:33;;;;;;;;;;;;;;;19.43;43.29785;102305;;;;-82
2022/05/27 17:39:33;;;;;;;;;;;;;;;19.25;43.51953;102301.4;;;;-82
2022/05/27 17:44:34;;;;;;;;;;;;;;;19.09;43.7793;102310.3;;;;-84
2022/05/27 17:52:14;;;;;;;4.8;1.3;;;;;;;;;;;;;-83
2022/05/27 17:54:33;;;;;;;;;;;;;;;18.82;43.95703;102315;;;;-84
2022/05/27 17:59:33;;;;;;;;;;;;;;;18.66;44.13379;102313;;;;-83
2022/05/27 18:04:33;;;;;;;;;;;;;;;18.49;44.21973;102307.3;;;;-82
2022/05/27 18:09:36;;;;;;;;;;;;;;;18.34;44.36328;102307.9;;;;-82
2022/05/27 18:14:33;;;;;;;;;;;;;;;18.19;44.54395;102303.7;;;;-81
2022/05/27 18:19:33;;;;;;;;;;;;;;;18.07;44.73535;102304.2;;;;-82
2022/05/27 18:22:15;;;;;;;9.8;1.4;;;;;;;;;;;;;-82
2022/05/27 18:24:33;;;;;;;;;;;;;;;17.96;44.83691;102310.6;;;;-83
2022/05/27 18:29:34;;;;;;;;;;;;;;;17.89;44.94434;102308.8;;;;-82
2022/05/27 18:34:33;;;;;;;;;;;;;;;17.89;44.92188;102312.4;;;;-83
2022/05/27 18:39:34;;;;;;;;;;;;;;;17.86;44.82813;102309.3;;;;-81
2022/05/27 18:44:33;;;;;;;;;;;;;;;17.77;44.78613;102307.8;;;;-81
2022/05/27 18:49:36;;;;;;;;;;;;;;;17.63;44.95313;102309.3;;;;-83
2022/05/27 18:52:18;;;;;;;7.5;1.3;;;;;;;;;;;;;-83
2022/05/27 18:54:33;;;;;;;;;;;;;;;17.45;45.11621;102307.8;;;;-83
2022/05/27 18:59:33;;;;;;;;;;;;;;;17.28;45.2002;102302;;;;-82
2022/05/27 19:04:33;;;;;;;;;;;;;;;17.08;45.37402;102301.9;;;;-82
2022/05/27 19:09:33;;;;;;;;;;;;;;;16.87;45.78223;102300.4;;;;-82
2022/05/27 19:14:33;;;;;;;;;;;;;;;16.64;46.48438;102299.3;;;;-83
2022/05/27 19:22:21;;;;;;;5.5;1.4;;;;;;;;;;;;;-82
2022/05/27 19:24:34;;;;;;;;;;;;;;;16.21;47.44727;102305.8;;;;-81
2022/05/27 19:29:36;;;;;;;;;;;;;;;15.99;47.74023;102309.1;;;;-82
2022/05/27 19:34:36;;;;;;;;;;;;;;;15.79;48.55371;102308.4;;;;-81
2022/05/27 19:39:36;;;;;;;;;;;;;;;15.6;48.91797;102310;;;;-83
2022/05/27 19:44:38;;;;;;;;;;;;;;;15.4;49.35742;102303.2;;;;-84
2022/05/27 19:49:39;;;;;;;;;;;;;;;15.24;49.96094;102310;;;;-82
2022/05/27 19:52:39;;;;;;;7.5;1.4;;;;;;;;;;;;;-79
2022/05/27 20:09:31;;;;;;;;;;;;;;;14.69;51.02637;102324.9;;;;-82
2022/05/27 20:14:30;;;;;;;;;;;;;;;14.62;51.44629;102321.7;;;;-80
2022/05/27 20:19:37;;;;;;;;;;;;;;;14.57;51.49609;102316.3;;;;-83
2022/05/27 20:22:45;;;;;;;8.2;1.6;;;;;;;;;;;;;-81
2022/05/27 20:24:31;;;;;;;;;;;;;;;14.53;51.74023;102314;;;;-83
2022/05/27 20:29:45;;;;;;;;;;;;;;;14.5;51.91504;102313.4;;;;-83
2022/05/27 20:34:40;;;;;;;;;;;;;;;14.44;51.70605;102307.6;;;;-82
2022/05/27 20:39:33;;;;;;;;;;;;;;;14.41;52.12012;102314.9;;;;-83
2022/05/27 20:44:42;;;;;;;;;;;;;;;14.39;52.47754;102310.4;;;;-82
2022/05/27 20:57:32;;;;;;;;;;;;;;;14.37;52.53027;102341.7;;;;-79
2022/05/27 21:02:36;;;;;;;;;;;;;;;14.33;52.7959;102325.8;;;;-82
2022/05/27 21:07:31;;;;;;;;;;;;;;;14.28;53.56641;102325.8;;;;-79
2022/05/27 21:12:30;;;;;;;;;;;;;;;14.22;53.86328;102317.6;;;;-81
2022/05/27 21:17:32;;;;;;;;;;;;;;;14.12;53.77148;102315.3;;;;-82
2022/05/27 21:22:35;;;;;;;;;;;;;;;14.02;53.93945;102310.2;;;;-80
2022/05/27 21:23:06;;;;;;;6.1;1.7;;;;;;;;;;;;;-80
2022/05/27 21:27:29;;;;;;;;;;;;;;;13.95;53.9082;102300.8;;;;-81
2022/05/27 21:35:20;;;;;;;;;;;;;;;;;;;;;
2022/05/27 21:45:14;;;;;;;;;;;;;;;13.71;54.19336;102294.8;;;;-80
2022/05/27 21:49:51;;;;;;;;;;;;;;;13.67;54.76172;102290.7;;;;-81
2022/05/27 21:52:26;;;;;;;5.3;1.3;;;;;;;;;;;;;-81
2022/05/27 21:54:51;;;;;;;;;;;;;;;13.62;55.13672;102300.3;;;;-80
2022/05/27 21:59:51;;;;;;;;;;;;;;;13.58;55.35645;102305.5;;;;-81
2022/05/27 22:04:52;;;;;;;;;;;;;;;13.55;55.54297;102294.9;;;;-81
2022/05/27 22:14:51;;;;;;;;;;;;;;;13.49;55.54688;102277.9;;;;-83
2022/05/27 22:19:51;;;;;;;;;;;;;;;13.45;55.42871;102268.3;;;;-83
2022/05/27 22:22:28;;;;;;;6.3;1.3;;;;;;;;;;;;;-83
2022/05/27 22:24:51;;;;;;;;;;;;;;;13.43;55.74023;102264.9;;;;-79
2022/05/27 22:29:51;;;;;;;;;;;;;;;13.39;55.82617;102267.6;;;;-79
2022/05/27 22:34:52;;;;;;;;;;;;;;;13.35;55.84277;102259.5;;;;-81
2022/05/27 22:39:51;;;;;;;;;;;;;;;13.32;56.1084;102256.2;;;;-82
2022/05/27 22:44:52;;;;;;;;;;;;;;;13.3;56.24121;102254.4;;;;-83
2022/05/27 22:49:51;;;;;;;;;;;;;;;13.27;56.15918;102255.1;;;;-81
2022/05/27 22:52:29;;;;;;;5.9;1.1;;;;;;;;;;;;;-80
2022/05/27 22:54:51;;;;;;;;;;;;;;;13.24;56.57031;102248.9;;;;-82
2022/05/27 22:59:51;;;;;;;;;;;;;;;13.23;56.79199;102246.2;;;;-80
2022/05/27 23:04:52;;;;;;;;;;;;;;;13.2;56.74414;102247.1;;;;-82
2022/05/27 23:09:51;;;;;;;;;;;;;;;13.18;56.74023;102247.6;;;;-80
2022/05/27 23:19:51;;;;;;;;;;;;;;;13.08;56.81836;102236.2;;;;-81
2022/05/27 23:22:30;;;;;;;7.1;1.4;;;;;;;;;;;;;-79
2022/05/27 23:24:51;;;;;;;;;;;;;;;13.01;56.87598;102232.1;;;;-83
2022/05/27 23:29:51;;;;;;;;;;;;;;;12.92;57.11035;102230.2;;;;-83
2022/05/27 23:34:51;;;;;;;;;;;;;;;12.83;56.95313;102231.3;;;;-81
2022/05/27 23:39:52;;;;;;;;;;;;;;;12.73;57.30957;102230.8;;;;-81
2022/05/27 23:44:51;;;;;;;;;;;;;;;12.65;57.52246;102233.7;;;;-83
2022/05/27 23:49:51;;;;;;;;;;;;;;;12.57;57.53516;102227.9;;;;-81
2022/05/27 23:52:32;;;;;;;6.4;1.2;;;;;;;;;;;;;-81
2022/05/27 23:54:51;;;;;;;;;;;;;;;12.48;57.82422;102222.6;;;;-81
2022/05/27 23:59:52;;;;;;;;;;;;;;;12.41;57.80469;102211.7;;;;-82
